createdAt,value
2019-04-01T00:03:59.719Z,69.81
2019-04-01T00:09:06.607Z,69.95
2019-04-01T00:14:12.157Z,68.90
2019-04-01T00:19:17.371Z,69.32
2019-04-01T00:24:22.524Z,69.99
2019-04-01T00:29:27.728Z,70.05
2019-04-01T00:34:32.885Z,70.29
2019-04-01T00:39:38.375Z,70.37
2019-04-01T00:44:43.823Z,70.79
2019-04-01T00:49:49.033Z,70.73
2019-04-01T00:54:54.474Z,70.99
2019-04-01T00:59:59.904Z,71.16
2019-04-01T01:05:06.013Z,71.08
2019-04-01T01:10:11.674Z,71.05
2019-04-01T01:15:17.833Z,71.37
2019-04-01T01:20:23.851Z,71.83
2019-04-01T01:25:29.005Z,72.32
2019-04-01T01:30:34.153Z,72.76
2019-04-01T01:35:39.309Z,72.51
2019-04-01T01:40:44.951Z,72.59
2019-04-01T01:45:50.117Z,72.12
2019-04-01T01:50:56.122Z,71.84
2019-04-01T01:56:02.643Z,72.15
2019-04-01T02:01:07.775Z,72.05
2019-04-01T02:06:12.997Z,71.75
2019-04-01T02:11:18.151Z,72.18
2019-04-01T02:16:23.669Z,72.30
2019-04-01T02:21:29.617Z,72.72
2019-04-01T02:26:35.737Z,73.36
2019-04-01T02:31:41.209Z,73.82
2019-04-01T02:36:46.392Z,73.90
2019-04-01T02:41:52.509Z,73.93
2019-04-01T02:46:58.489Z,74.53
2019-04-01T02:52:03.932Z,74.63
2019-04-01T02:57:09.077Z,75.10
2019-04-01T03:02:14.233Z,76.19
2019-04-01T03:07:19.377Z,76.58
2019-04-01T03:12:25.303Z,77.06
2019-04-01T03:17:30.468Z,77.57
2019-04-01T03:22:35.667Z,77.76
2019-04-01T03:27:40.823Z,78.17
2019-04-01T03:32:46.237Z,78.51
2019-04-01T03:37:51.764Z,78.71
2019-04-01T03:42:57.263Z,78.70
2019-04-01T03:48:03.479Z,78.65
2019-04-01T03:53:08.639Z,78.75
2019-04-01T03:58:14.737Z,78.42
2019-04-01T04:03:19.889Z,78.48
2019-04-01T04:08:25.045Z,78.56
2019-04-01T04:13:30.212Z,78.51
2019-04-01T04:18:35.391Z,78.79
2019-04-01T04:23:40.575Z,78.81
2019-04-01T04:28:45.846Z,78.91
2019-04-01T04:33:51.651Z,79.17
2019-04-01T04:38:56.814Z,79.30
2019-04-01T04:44:02.005Z,79.49
2019-04-01T04:49:07.535Z,79.60
2019-04-01T04:54:12.701Z,79.66
2019-04-01T04:59:17.803Z,79.73
2019-04-01T05:04:22.980Z,80.28
2019-04-01T05:09:28.375Z,80.16
2019-04-01T05:14:33.908Z,80.15
2019-04-01T05:19:39.482Z,80.59
2019-04-01T05:24:44.747Z,80.57
2019-04-01T05:29:52.172Z,80.42
2019-04-01T05:34:58.804Z,80.36
2019-04-01T05:40:05.246Z,80.62
2019-04-01T05:45:11.144Z,80.66
2019-04-01T05:50:16.383Z,80.62
2019-04-01T05:55:21.619Z,80.48
2019-04-01T06:00:54.767Z,80.17
2019-04-01T06:06:00.335Z,80.06
2019-04-01T06:11:05.837Z,79.81
2019-04-01T06:16:11.235Z,79.31
2019-04-01T06:21:17.495Z,78.91
2019-04-01T06:26:23.675Z,78.33
2019-04-01T06:31:29.172Z,77.33
2019-04-01T06:36:34.699Z,77.38
2019-04-01T06:41:39.866Z,76.43
2019-04-01T06:46:45.220Z,75.77
2019-04-01T06:51:50.378Z,75.58
2019-04-01T06:56:55.545Z,74.58
2019-04-01T07:02:00.815Z,74.21
2019-04-01T07:07:18.325Z,73.06
2019-04-01T07:12:13.025Z,72.77
2019-04-01T07:17:18.320Z,72.85
2019-04-01T07:22:24.063Z,70.95
2019-04-01T07:27:29.241Z,70.39
2019-04-01T07:32:34.658Z,70.40
2019-04-01T07:37:40.264Z,69.92
2019-04-01T07:42:45.534Z,71.41
2019-04-01T07:47:51.729Z,68.39
2019-04-01T07:52:58.572Z,67.89
2019-04-01T07:58:03.736Z,67.05
2019-04-01T08:03:08.898Z,66.92
2019-04-01T08:08:14.057Z,65.87
2019-04-01T08:13:19.275Z,64.83
2019-04-01T08:18:24.457Z,63.53
2019-04-01T08:23:31.006Z,62.78
2019-04-01T08:28:38.161Z,62.69
2019-04-01T08:33:43.335Z,62.14
2019-04-01T08:38:48.660Z,61.60
2019-04-01T08:43:53.964Z,60.69
2019-04-01T08:49:00.865Z,60.95
2019-04-01T08:54:06.343Z,61.50
2019-04-01T08:59:17.283Z,61.17
2019-04-01T09:04:23.404Z,60.47
2019-04-01T09:09:30.557Z,59.88
2019-04-01T09:14:36.256Z,58.29
2019-04-01T09:19:41.840Z,57.27
2019-04-01T09:24:47.030Z,58.73
2019-04-01T09:29:52.079Z,58.34
2019-04-01T09:34:57.377Z,58.20
2019-04-01T09:40:02.901Z,55.86
2019-04-01T09:45:08.579Z,55.71
2019-04-01T09:50:13.963Z,55.65
2019-04-01T09:55:19.294Z,55.64
2019-04-01T10:00:24.704Z,55.82
2019-04-01T10:05:30.500Z,55.10
2019-04-01T10:10:36.884Z,54.40
2019-04-01T10:15:43.610Z,54.41
2019-04-01T10:20:49.416Z,53.28
2019-04-01T10:25:54.590Z,53.78
2019-04-01T10:30:59.832Z,53.08
2019-04-01T10:36:05.166Z,53.59
2019-04-01T10:41:10.803Z,53.29
2019-04-01T10:46:16.053Z,52.10
2019-04-01T10:51:21.317Z,52.50
2019-04-01T10:56:26.889Z,53.51
2019-04-01T11:01:33.275Z,52.34
2019-04-01T11:06:39.639Z,52.21
2019-04-01T11:11:45.281Z,51.71
2019-04-01T11:16:50.575Z,52.78
2019-04-01T11:21:56.164Z,51.89
2019-04-01T11:27:01.401Z,52.69
2019-04-01T11:32:07.727Z,52.82
2019-04-01T11:37:13.173Z,51.58
2019-04-01T11:42:18.581Z,51.53
2019-04-01T11:47:23.952Z,51.71
2019-04-01T11:52:29.318Z,50.99
2019-04-01T11:57:34.550Z,51.37
2019-04-01T12:02:39.801Z,52.34
2019-04-01T12:07:45.053Z,51.13
2019-04-01T12:12:51.404Z,51.13
2019-04-01T12:17:58.286Z,51.31
2019-04-01T12:23:03.919Z,51.57
2019-04-01T12:28:09.223Z,51.66
2019-04-01T12:33:14.424Z,51.23
2019-04-01T12:38:19.794Z,50.79
2019-04-01T12:43:25.697Z,50.67
2019-04-01T12:48:31.034Z,51.52
2019-04-01T12:53:36.654Z,49.70
2019-04-01T12:58:41.919Z,50.01
2019-04-01T13:03:48.790Z,50.23
2019-04-01T13:08:54.092Z,48.82
2019-04-01T13:13:59.580Z,48.39
2019-04-01T13:19:04.842Z,48.60
2019-04-01T13:24:10.507Z,47.41
2019-04-01T13:29:16.208Z,46.81
2019-04-01T13:34:21.804Z,47.07
2019-04-01T13:39:27.132Z,46.61
2019-04-01T13:44:37.365Z,46.18
2019-04-01T13:49:40.073Z,45.55
2019-04-01T13:54:45.306Z,46.53
2019-04-01T13:59:51.764Z,44.90
2019-04-01T14:04:57.380Z,44.48
2019-04-01T14:10:02.726Z,44.48
2019-04-01T14:15:08.803Z,43.25
2019-04-01T14:20:14.099Z,43.79
2019-04-01T14:25:19.341Z,43.37
2019-04-01T14:30:25.607Z,42.69
2019-04-01T14:35:31.255Z,42.45
2019-04-01T14:40:37.091Z,42.65
2019-04-01T14:45:42.394Z,42.63
2019-04-01T14:50:47.642Z,39.97
2019-04-01T14:55:53.826Z,41.05
2019-04-01T15:00:59.210Z,39.88
2019-04-01T15:06:04.804Z,39.00
2019-04-01T15:11:09.985Z,40.46
2019-04-01T15:16:15.237Z,39.34
2019-04-01T15:21:21.778Z,38.54
2019-04-01T15:26:27.362Z,38.76
2019-04-01T15:31:33.703Z,38.96
2019-04-01T15:36:38.970Z,39.00
2019-04-01T15:41:45.334Z,39.26
2019-04-01T15:46:51.442Z,38.97
2019-04-01T15:51:57.840Z,38.78
2019-04-01T15:57:03.089Z,38.80
2019-04-01T16:02:08.343Z,39.08
2019-04-01T16:07:13.876Z,38.96
2019-04-01T16:12:19.505Z,39.77
2019-04-01T16:17:25.872Z,39.58
2019-04-01T16:22:31.171Z,40.20
2019-04-01T16:27:37.494Z,41.05
2019-04-01T16:32:42.768Z,40.81
2019-04-01T16:37:48.014Z,41.03
2019-04-01T16:42:55.665Z,42.01
2019-04-01T16:48:00.349Z,42.53
2019-04-01T16:53:05.723Z,44.14
2019-04-01T16:58:10.977Z,44.13
2019-04-01T17:03:16.320Z,44.64
2019-04-01T17:08:21.932Z,45.33
2019-04-01T17:13:27.490Z,45.92
2019-04-01T17:18:33.123Z,46.70
2019-04-01T17:23:41.697Z,47.19
2019-04-01T17:28:45.623Z,47.77
2019-04-01T17:33:51.178Z,48.31
2019-04-01T17:38:56.420Z,48.95
2019-04-01T17:44:01.729Z,49.80
2019-04-01T17:49:07.092Z,50.47
2019-04-01T17:54:12.346Z,51.20
2019-04-01T17:59:17.716Z,51.62
2019-04-01T18:04:23.060Z,52.61
2019-04-01T18:09:30.998Z,53.07
2019-04-01T18:14:36.408Z,53.14
2019-04-01T18:19:42.473Z,53.83
2019-04-01T18:24:48.258Z,53.83
2019-04-01T18:29:53.804Z,54.33
2019-04-01T18:34:59.041Z,54.54
2019-04-01T18:40:04.869Z,54.97
2019-04-01T18:45:10.840Z,55.17
2019-04-01T18:50:16.822Z,55.24
2019-04-01T18:55:22.438Z,55.74
2019-04-01T19:00:27.886Z,56.01
2019-04-01T19:05:33.266Z,56.22
2019-04-01T19:10:39.476Z,56.84
2019-04-01T19:15:45.348Z,57.16
2019-04-01T19:20:56.933Z,57.31
2019-04-01T19:25:58.227Z,57.61
2019-04-01T19:31:03.889Z,57.81
2019-04-01T19:36:10.202Z,57.52
2019-04-01T19:41:15.755Z,57.96
2019-04-01T19:46:21.002Z,58.16
2019-04-01T19:51:26.179Z,58.59
2019-04-01T19:56:31.731Z,58.97
2019-04-01T20:01:37.384Z,58.84
2019-04-01T20:06:42.636Z,59.27
2019-04-01T20:11:47.990Z,59.65
2019-04-01T20:16:53.499Z,59.83
2019-04-01T20:21:58.697Z,60.02
2019-04-01T20:27:04.191Z,60.34
2019-04-01T20:32:17.304Z,60.11
2019-04-01T20:37:16.747Z,60.34
2019-04-01T20:42:23.120Z,60.74
2019-04-01T20:47:29.037Z,60.84
2019-04-01T20:52:34.751Z,60.93
2019-04-01T20:57:39.988Z,61.11
2019-04-01T21:02:45.475Z,61.26
2019-04-01T21:07:50.767Z,61.19
2019-04-01T21:12:55.957Z,61.28
2019-04-01T21:18:01.238Z,61.68
2019-04-01T21:23:07.619Z,61.92
2019-04-01T21:28:12.912Z,62.09
2019-04-01T21:33:18.232Z,62.11
2019-04-01T21:38:23.402Z,62.34
2019-04-01T21:43:29.555Z,62.41
2019-04-01T21:48:35.359Z,62.43
2019-04-01T21:53:40.531Z,62.81
2019-04-01T21:58:47.141Z,63.11
2019-04-01T22:03:52.393Z,63.24
2019-04-01T22:08:58.458Z,63.30
2019-04-01T22:14:03.992Z,63.57
2019-04-01T22:19:09.899Z,64.08
2019-04-01T22:24:15.456Z,64.04
2019-04-01T22:29:20.757Z,64.36
2019-04-01T22:34:26.060Z,64.67
2019-04-01T22:39:32.893Z,64.32
2019-04-01T22:44:38.617Z,64.80
2019-04-01T22:49:44.071Z,65.33
2019-04-01T22:54:50.753Z,65.29
2019-04-01T22:59:56.488Z,66.11
2019-04-01T23:05:03.409Z,66.33
2019-04-01T23:10:10.408Z,66.60
2019-04-01T23:15:15.810Z,67.58
2019-04-01T23:20:22.729Z,67.76
2019-04-01T23:25:28.153Z,68.25
2019-04-01T23:30:33.517Z,68.19
2019-04-01T23:35:39.555Z,68.13
2019-04-01T23:40:45.054Z,68.35
2019-04-01T23:45:50.498Z,69.11
2019-04-01T23:50:56.929Z,69.81
2019-04-01T23:56:02.474Z,69.47
